createdAt,value
2023-01-03T00:02:14.819Z,100065.81
2023-01-03T00:04:49.669Z,100077.13
2023-01-03T00:07:34.370Z,100074.41
2023-01-03T00:10:05.330Z,100075.25
2023-01-03T00:12:34.709Z,100083.09
2023-01-03T00:15:06.004Z,100089.19
2023-01-03T00:17:37.368Z,100085.44
2023-01-03T00:20:09.033Z,100084.72
2023-01-03T00:22:37.882Z,100084.25
2023-01-03T00:25:07.600Z,100086.25
2023-01-03T00:27:36.376Z,100075.31
2023-01-03T00:30:18.178Z,100076.38
2023-01-03T00:32:47.003Z,100081.66
2023-01-03T00:35:16.142Z,100085.97
2023-01-03T00:37:44.779Z,100081.53
2023-01-03T00:40:14.055Z,100086.44
2023-01-03T00:43:00.124Z,100094.75
2023-01-03T00:45:35.086Z,100087.66
2023-01-03T00:48:04.147Z,100087.88
2023-01-03T00:50:35.493Z,100089.53
2023-01-03T00:53:06.106Z,100100.78
2023-01-03T00:55:37.178Z,100091.78
2023-01-03T00:58:05.933Z,100093.34
2023-01-03T01:00:35.952Z,100098.16
2023-01-03T01:03:04.835Z,100101.56
2023-01-03T01:05:35.953Z,100102.56
2023-01-03T01:08:04.668Z,100100.16
2023-01-03T01:10:32.804Z,100117.91
2023-01-03T01:13:04.291Z,100116.00
2023-01-03T01:15:32.753Z,100114.00
2023-01-03T01:18:02.834Z,100115.84
2023-01-03T01:20:32.581Z,100112.44
2023-01-03T01:23:05.991Z,100116.47
2023-01-03T01:25:36.026Z,100126.31
2023-01-03T01:28:04.791Z,100120.78
2023-01-03T01:30:35.096Z,100123.13
2023-01-03T01:33:06.209Z,100128.91
2023-01-03T01:35:38.345Z,100120.84
2023-01-03T01:38:07.787Z,100134.41
2023-01-03T01:40:36.452Z,100136.56
2023-01-03T01:43:34.859Z,100133.25
2023-01-03T01:46:12.217Z,100136.75
2023-01-03T01:48:42.566Z,100142.72
2023-01-03T01:51:13.040Z,100137.44
2023-01-03T01:53:46.936Z,100148.91
2023-01-03T01:56:20.913Z,100147.81
2023-01-03T01:58:54.144Z,100148.97
2023-01-03T02:01:25.026Z,100147.84
2023-01-03T02:04:02.092Z,100145.88
2023-01-03T02:06:33.547Z,100146.03
2023-01-03T02:09:03.606Z,100149.19
2023-01-03T02:11:43.963Z,100142.38
2023-01-03T02:14:28.784Z,100150.53
2023-01-03T02:17:07.792Z,100149.34
2023-01-03T02:19:59.810Z,100141.22
2023-01-03T02:22:55.925Z,100143.59
2023-01-03T02:26:08.443Z,100144.84
2023-01-03T02:29:09.721Z,100147.84
2023-01-03T02:31:48.493Z,100141.47
2023-01-03T02:34:25.283Z,100145.72
2023-01-03T02:37:05.285Z,100151.25
2023-01-03T02:39:41.209Z,100153.44
2023-01-03T02:42:33.278Z,100158.16
2023-01-03T02:45:11.164Z,100157.19
2023-01-03T02:47:47.664Z,100157.44
2023-01-03T02:50:18.652Z,100154.66
2023-01-03T02:52:50.433Z,100160.94
2023-01-03T02:55:24.345Z,100163.91
2023-01-03T02:57:56.534Z,100163.84
2023-01-03T03:00:29.785Z,100161.06
2023-01-03T03:03:06.667Z,100168.53
2023-01-03T03:05:57.410Z,100165.91
2023-01-03T03:08:26.355Z,100158.50
2023-01-03T03:11:13.356Z,100165.22
2023-01-03T03:13:47.899Z,100162.63
2023-01-03T03:16:41.965Z,100168.13
2023-01-03T03:19:36.141Z,100168.44
2023-01-03T03:22:26.518Z,100165.91
2023-01-03T03:25:03.791Z,100166.94
2023-01-03T03:27:53.577Z,100165.38
2023-01-03T03:30:25.398Z,100169.44
2023-01-03T03:33:00.755Z,100168.00
2023-01-03T03:35:48.786Z,100166.69
2023-01-03T03:38:24.714Z,100169.19
2023-01-03T03:41:18.259Z,100170.75
2023-01-03T03:44:13.819Z,100171.09
2023-01-03T03:46:54.396Z,100181.31
2023-01-03T03:49:41.899Z,100175.84
2023-01-03T03:52:17.660Z,100172.03
2023-01-03T03:54:50.155Z,100177.44
2023-01-03T03:57:24.553Z,100177.34
2023-01-03T04:00:01.888Z,100182.75
2023-01-03T04:02:32.766Z,100175.38
2023-01-03T04:05:08.095Z,100177.09
2023-01-03T04:07:40.311Z,100181.44
2023-01-03T04:10:11.398Z,100179.66
2023-01-03T04:12:45.041Z,100182.75
2023-01-03T04:15:15.116Z,100183.22
2023-01-03T04:17:43.940Z,100183.75
2023-01-03T04:20:14.083Z,100183.03
2023-01-03T04:22:46.803Z,100189.03
2023-01-03T04:25:15.426Z,100188.16
2023-01-03T04:27:43.952Z,100189.75
2023-01-03T04:30:16.279Z,100183.00
2023-01-03T04:32:44.777Z,100184.81
2023-01-03T04:35:13.257Z,100187.84
2023-01-03T04:37:41.673Z,100180.19
2023-01-03T04:40:14.699Z,100176.19
2023-01-03T04:43:00.429Z,100176.78
2023-01-03T04:45:28.927Z,100182.84
2023-01-03T04:47:57.955Z,100183.22
2023-01-03T04:50:27.651Z,100186.03
2023-01-03T04:52:56.565Z,100186.72
2023-01-03T04:55:29.825Z,100185.94
2023-01-03T04:57:58.380Z,100187.16
2023-01-03T05:00:29.319Z,100184.91
2023-01-03T05:02:57.737Z,100185.75
2023-01-03T05:05:26.081Z,100183.44
2023-01-03T05:07:55.036Z,100184.53
2023-01-03T05:10:23.501Z,100194.50
2023-01-03T05:13:03.478Z,100190.91
2023-01-03T05:15:33.906Z,100191.31
2023-01-03T05:18:04.498Z,100201.38
2023-01-03T05:20:49.879Z,100192.16
2023-01-03T05:23:37.011Z,100194.91
2023-01-03T05:26:09.332Z,100193.69
2023-01-03T05:28:39.991Z,100199.31
2023-01-03T05:31:08.936Z,100201.97
2023-01-03T05:33:39.645Z,100207.56
2023-01-03T05:36:09.357Z,100208.69
2023-01-03T05:38:41.048Z,100208.72
2023-01-03T05:41:09.457Z,100216.25
2023-01-03T05:43:39.274Z,100207.66
2023-01-03T05:46:08.306Z,100213.13
2023-01-03T05:48:37.369Z,100214.31
2023-01-03T05:51:06.173Z,100207.09
2023-01-03T05:53:35.054Z,100205.31
2023-01-03T05:56:06.467Z,100207.22
2023-01-03T05:58:37.397Z,100201.38
2023-01-03T06:01:14.949Z,100207.03
2023-01-03T06:03:46.424Z,100208.81
2023-01-03T06:06:17.263Z,100221.78
2023-01-03T06:08:46.954Z,100212.72
2023-01-03T06:11:19.816Z,100220.84
2023-01-03T06:13:48.894Z,100218.28
2023-01-03T06:16:37.873Z,100220.25
2023-01-03T06:19:07.613Z,100224.25
2023-01-03T06:21:36.696Z,100222.19
2023-01-03T06:24:05.986Z,100225.63
2023-01-03T06:26:36.978Z,100226.44
2023-01-03T06:29:05.700Z,100224.75
2023-01-03T06:31:35.972Z,100223.22
2023-01-03T06:34:05.515Z,100224.66
2023-01-03T06:36:34.889Z,100223.16
2023-01-03T06:39:03.863Z,100223.31
2023-01-03T06:41:32.374Z,100226.06
2023-01-03T06:44:00.848Z,100231.50
2023-01-03T06:46:49.089Z,100237.63
2023-01-03T06:49:36.962Z,100239.94
2023-01-03T06:52:23.337Z,100239.94
2023-01-03T06:54:54.811Z,100240.75
2023-01-03T06:57:25.861Z,100242.94
2023-01-03T06:59:55.631Z,100250.16
2023-01-03T07:02:24.489Z,100242.31
2023-01-03T07:04:54.829Z,100245.75
2023-01-03T07:07:23.670Z,100246.72
2023-01-03T07:09:51.832Z,100253.03
2023-01-03T07:12:39.040Z,100264.31
2023-01-03T07:15:08.378Z,100271.31
2023-01-03T07:17:39.298Z,100275.66
2023-01-03T07:20:11.037Z,100278.34
2023-01-03T07:22:39.663Z,100274.06
2023-01-03T07:25:08.532Z,100288.16
2023-01-03T07:27:37.216Z,100292.94
2023-01-03T07:30:06.109Z,100294.63
2023-01-03T07:32:34.699Z,100300.91
2023-01-03T07:35:04.058Z,100298.72
2023-01-03T07:37:34.458Z,100311.31
2023-01-03T07:40:02.832Z,100306.09
2023-01-03T07:42:48.659Z,100308.63
2023-01-03T07:45:17.130Z,100320.97
2023-01-03T07:47:47.283Z,100327.28
2023-01-03T07:50:16.540Z,100332.53
2023-01-03T07:52:47.120Z,100333.19
2023-01-03T07:55:16.468Z,100340.13
2023-01-03T07:57:45.147Z,100333.00
2023-01-03T08:00:14.341Z,100342.75
2023-01-03T08:02:42.893Z,100345.59
2023-01-03T08:05:11.729Z,100347.59
2023-01-03T08:07:40.035Z,100350.50
2023-01-03T08:10:28.629Z,100348.81
2023-01-03T08:13:13.938Z,100353.03
2023-01-03T08:15:45.027Z,100354.19
2023-01-03T08:18:15.645Z,100366.56
2023-01-03T08:20:47.441Z,100368.25
2023-01-03T08:23:16.696Z,100369.03
2023-01-03T08:25:46.911Z,100369.03
2023-01-03T08:28:16.401Z,100375.97
2023-01-03T08:30:47.402Z,100378.28
2023-01-03T08:33:18.912Z,100389.38
2023-01-03T08:35:51.214Z,100399.47
2023-01-03T08:38:24.786Z,100389.59
2023-01-03T08:41:01.232Z,100392.41
2023-01-03T08:43:31.347Z,100396.38
2023-01-03T08:46:02.698Z,100396.63
2023-01-03T08:48:33.335Z,100400.25
2023-01-03T08:51:03.309Z,100399.38
2023-01-03T08:53:31.677Z,100393.53
2023-01-03T08:56:02.790Z,100399.47
2023-01-03T08:58:32.052Z,100396.97
2023-01-03T09:01:03.953Z,100397.22
2023-01-03T09:03:32.504Z,100403.69
2023-01-03T09:06:03.020Z,100402.25
2023-01-03T09:08:33.816Z,100403.88
2023-01-03T09:11:13.137Z,100403.75
2023-01-03T09:13:46.526Z,100408.97
2023-01-03T09:16:17.298Z,100416.91
2023-01-03T09:18:45.567Z,100413.38
2023-01-03T09:21:16.875Z,100408.88
2023-01-03T09:23:46.962Z,100424.69
2023-01-03T09:26:17.067Z,100426.72
2023-01-03T09:28:45.772Z,100420.69
2023-01-03T09:31:14.170Z,100431.94
2023-01-03T09:33:42.467Z,100435.34
2023-01-03T09:36:13.898Z,100434.97
2023-01-03T09:38:42.642Z,100435.56
2023-01-03T09:41:19.142Z,100437.31
2023-01-03T09:43:52.939Z,100434.81
2023-01-03T09:46:23.397Z,100434.59
2023-01-03T09:48:55.527Z,100435.88
2023-01-03T09:51:53.343Z,100430.25
2023-01-03T09:54:46.282Z,100434.56
2023-01-03T09:57:35.616Z,100427.41
2023-01-03T10:00:31.566Z,100424.19
2023-01-03T10:03:35.164Z,100436.84
2023-01-03T10:06:14.497Z,100439.31
2023-01-03T10:08:56.875Z,100425.38
2023-01-03T10:11:37.544Z,100420.66
2023-01-03T10:14:18.835Z,100420.69
2023-01-03T10:16:57.539Z,100421.72
2023-01-03T10:19:47.774Z,100425.38
2023-01-03T10:22:20.581Z,100417.06
2023-01-03T10:24:57.322Z,100418.91
2023-01-03T10:27:28.913Z,100407.41
2023-01-03T10:30:03.599Z,100407.91
2023-01-03T10:32:52.803Z,100398.50
2023-01-03T10:35:24.175Z,100397.50
2023-01-03T10:37:54.148Z,100397.28
2023-01-03T10:40:36.513Z,100381.72
2023-01-03T10:43:17.569Z,100394.00
2023-01-03T10:45:54.656Z,100386.81
2023-01-03T10:48:25.614Z,100384.09
2023-01-03T10:50:55.205Z,100389.06
2023-01-03T10:53:26.877Z,100396.50
2023-01-03T10:56:04.505Z,100391.28
2023-01-03T10:58:37.465Z,100387.31
2023-01-03T11:01:20.383Z,100389.47
2023-01-03T11:07:02.580Z,100383.44
2023-01-03T11:09:38.561Z,100375.91
2023-01-03T11:12:16.757Z,100368.84
2023-01-03T11:14:52.070Z,100371.03
2023-01-03T11:17:24.577Z,100360.63
2023-01-03T11:19:54.221Z,100357.88
2023-01-03T11:22:37.660Z,100357.97
2023-01-03T11:25:21.284Z,100357.25
2023-01-03T11:28:33.264Z,100347.03
2023-01-03T11:31:07.289Z,100340.66
2023-01-03T11:33:52.141Z,100342.38
2023-01-03T11:36:37.243Z,100338.81
2023-01-03T11:39:26.663Z,100345.22
2023-01-03T11:42:33.348Z,100339.66
2023-01-03T11:45:36.435Z,100336.44
2023-01-03T11:48:24.102Z,100334.25
2023-01-03T11:50:56.710Z,100340.09
2023-01-03T11:53:36.469Z,100340.38
2023-01-03T11:56:30.620Z,100340.44
2023-01-03T11:59:15.747Z,100338.56
2023-01-03T12:02:05.265Z,100343.03
2023-01-03T12:04:44.036Z,100340.16
2023-01-03T12:10:14.765Z,100331.09
2023-01-03T12:13:02.115Z,100331.78
2023-01-03T12:15:41.069Z,100332.00
2023-01-03T12:18:23.996Z,100325.53
2023-01-03T12:21:01.447Z,100331.66
2023-01-03T12:23:36.920Z,100332.81
2023-01-03T12:26:09.840Z,100335.34
2023-01-03T12:28:43.798Z,100346.13
2023-01-03T12:31:27.915Z,100334.50
2023-01-03T12:34:09.446Z,100333.19
2023-01-03T12:36:44.577Z,100336.13
2023-01-03T12:39:38.231Z,100337.78
2023-01-03T12:42:15.745Z,100341.31
2023-01-03T12:44:48.772Z,100330.53
2023-01-03T12:47:29.395Z,100321.50
2023-01-03T12:50:05.508Z,100326.91
2023-01-03T12:52:37.517Z,100321.75
2023-01-03T12:55:20.027Z,100316.03
2023-01-03T12:58:01.026Z,100322.38
2023-01-03T13:00:49.413Z,100312.56
2023-01-03T13:03:23.200Z,100316.00
2023-01-03T13:05:58.901Z,100310.16
2023-01-03T13:08:40.118Z,100308.78
2023-01-03T13:11:20.453Z,100308.50
2023-01-03T13:13:56.017Z,100304.13
2023-01-03T13:16:59.174Z,100301.81
2023-01-03T13:20:00.765Z,100290.78
2023-01-03T13:22:59.825Z,100274.94
2023-01-03T13:25:45.688Z,100267.22
2023-01-03T13:28:34.759Z,100273.50
2023-01-03T13:31:45.834Z,100275.53
2023-01-03T13:34:34.105Z,100271.63
2023-01-03T13:37:22.663Z,100278.00
2023-01-03T13:40:12.350Z,100262.78
2023-01-03T13:42:41.964Z,100261.31
2023-01-03T13:45:50.212Z,100266.59
2023-01-03T13:48:22.989Z,100266.88
2023-01-03T13:51:41.614Z,100264.56
2023-01-03T13:54:36.529Z,100248.63
2023-01-03T13:57:08.298Z,100261.25
2023-01-03T13:59:43.344Z,100257.97
2023-01-03T14:02:42.172Z,100259.53
2023-01-03T14:05:56.748Z,100250.84
2023-01-03T14:08:44.682Z,100260.28
2023-01-03T14:11:47.001Z,100254.13
2023-01-03T14:14:18.422Z,100254.25
2023-01-03T14:16:53.331Z,100257.69
2023-01-03T14:19:26.166Z,100256.78
2023-01-03T14:22:21.003Z,100255.13
2023-01-03T14:24:51.914Z,100258.00
2023-01-03T14:27:25.656Z,100265.38
2023-01-03T14:29:56.953Z,100255.91
2023-01-03T14:32:34.136Z,100269.19
2023-01-03T14:35:05.228Z,100271.56
2023-01-03T14:37:35.216Z,100271.63
2023-01-03T14:40:07.421Z,100265.22
2023-01-03T14:42:37.371Z,100264.81
2023-01-03T14:45:10.724Z,100268.41
2023-01-03T14:47:42.178Z,100264.22
2023-01-03T14:50:17.160Z,100263.09
2023-01-03T14:52:49.810Z,100250.78
2023-01-03T14:55:26.570Z,100264.91
2023-01-03T14:57:58.550Z,100267.19
2023-01-03T15:00:33.411Z,100265.22
2023-01-03T15:03:04.256Z,100268.91
2023-01-03T15:05:35.568Z,100275.63
2023-01-03T15:08:22.055Z,100270.03
2023-01-03T15:10:54.579Z,100270.84
2023-01-03T15:13:28.488Z,100276.84
2023-01-03T15:16:00.324Z,100274.41
2023-01-03T15:18:33.536Z,100279.09
2023-01-03T15:21:03.548Z,100273.47
2023-01-03T15:23:39.231Z,100275.53
2023-01-03T15:26:12.210Z,100279.09
2023-01-03T15:28:52.134Z,100286.88
2023-01-03T15:31:32.013Z,100285.53
2023-01-03T15:34:02.302Z,100289.81
2023-01-03T15:36:34.353Z,100286.88
2023-01-03T15:39:02.895Z,100289.59
2023-01-03T15:42:12.698Z,100289.69
2023-01-03T15:44:47.362Z,100284.84
2023-01-03T15:47:25.157Z,100295.28
2023-01-03T15:50:00.482Z,100289.03
2023-01-03T15:52:39.289Z,100292.13
2023-01-03T15:55:22.899Z,100294.25
2023-01-03T15:57:54.608Z,100296.47
2023-01-03T16:00:28.484Z,100302.03
2023-01-03T16:02:59.505Z,100299.91
2023-01-03T16:05:28.007Z,100304.47
2023-01-03T16:07:56.932Z,100299.56
2023-01-03T16:10:25.769Z,100306.75
2023-01-03T16:12:55.083Z,100322.44
2023-01-03T16:15:26.529Z,100320.88
2023-01-03T16:17:55.134Z,100316.50
2023-01-03T16:20:23.521Z,100317.31
2023-01-03T16:23:01.020Z,100320.19
2023-01-03T16:25:30.851Z,100317.56
2023-01-03T16:27:59.032Z,100318.59
2023-01-03T16:30:29.324Z,100312.91
2023-01-03T16:32:57.788Z,100313.13
2023-01-03T16:38:48.579Z,100319.81
2023-01-03T16:41:21.990Z,100322.53
2023-01-03T16:43:53.059Z,100328.66
2023-01-03T16:46:24.938Z,100314.00
2023-01-03T16:48:59.229Z,100322.66
2023-01-03T16:51:29.588Z,100322.44
2023-01-03T16:54:00.525Z,100314.00
2023-01-03T16:56:31.021Z,100316.19
2023-01-03T16:59:17.269Z,100317.19
2023-01-03T17:01:51.667Z,100320.13
2023-01-03T17:04:23.299Z,100304.34
2023-01-03T17:06:52.015Z,100302.28
2023-01-03T17:09:40.527Z,100312.63
2023-01-03T17:12:15.846Z,100314.34
2023-01-03T17:14:44.903Z,100310.25
2023-01-03T17:17:19.875Z,100317.56
2023-01-03T17:20:06.045Z,100314.91
2023-01-03T17:22:35.052Z,100311.13
2023-01-03T17:25:03.784Z,100309.34
2023-01-03T17:27:33.651Z,100306.88
2023-01-03T17:30:08.664Z,100298.91
2023-01-03T17:32:42.072Z,100314.06
2023-01-03T17:35:13.956Z,100301.88
2023-01-03T17:38:14.267Z,100297.81
2023-01-03T17:40:33.992Z,100298.56
2023-01-03T17:43:04.993Z,100300.34
2023-01-03T17:45:50.274Z,100302.97
2023-01-03T17:48:38.735Z,100306.41
2023-01-03T17:51:07.342Z,100303.03
2023-01-03T17:53:37.398Z,100307.63
2023-01-03T17:56:09.044Z,100305.72
2023-01-03T17:58:39.765Z,100319.72
2023-01-03T18:01:09.726Z,100318.97
2023-01-03T18:03:40.389Z,100325.09
2023-01-03T18:06:13.859Z,100325.06
2023-01-03T18:08:45.086Z,100322.06
2023-01-03T18:11:17.955Z,100322.97
2023-01-03T18:13:48.393Z,100331.97
2023-01-03T18:16:19.766Z,100329.09
2023-01-03T18:18:51.337Z,100330.50
2023-01-03T18:21:28.197Z,100336.69
2023-01-03T18:24:01.526Z,100326.69
2023-01-03T18:26:34.690Z,100331.66
2023-01-03T18:29:05.087Z,100331.75
2023-01-03T18:31:36.167Z,100342.00
2023-01-03T18:34:06.323Z,100336.75
2023-01-03T18:36:43.352Z,100347.28
2023-01-03T18:39:16.270Z,100335.03
2023-01-03T18:41:51.380Z,100341.31
2023-01-03T18:44:30.942Z,100336.53
2023-01-03T18:47:04.314Z,100344.53
2023-01-03T18:49:40.979Z,100337.38
2023-01-03T18:52:30.986Z,100345.97
2023-01-03T18:55:03.273Z,100340.97
2023-01-03T18:57:34.455Z,100344.88
2023-01-03T19:00:08.201Z,100334.91
2023-01-03T19:02:38.252Z,100339.38
2023-01-03T19:05:15.375Z,100346.38
2023-01-03T19:07:47.868Z,100346.75
2023-01-03T19:10:22.061Z,100338.69
2023-01-03T19:12:53.819Z,100341.50
2023-01-03T19:15:26.596Z,100333.84
2023-01-03T19:17:54.976Z,100330.59
2023-01-03T19:20:27.167Z,100333.38
2023-01-03T19:22:57.029Z,100323.91
2023-01-03T19:25:45.913Z,100334.97
2023-01-03T19:28:22.360Z,100334.38
2023-01-03T19:31:02.275Z,100335.78
2023-01-03T19:33:33.097Z,100322.13
2023-01-03T19:36:11.742Z,100316.50
2023-01-03T19:38:45.565Z,100319.94
2023-01-03T19:41:18.286Z,100324.13
2023-01-03T19:43:46.572Z,100319.72
2023-01-03T19:46:18.321Z,100317.19
2023-01-03T19:48:50.301Z,100318.06
2023-01-03T19:51:23.566Z,100318.91
2023-01-03T19:53:53.757Z,100316.97
2023-01-03T19:56:24.432Z,100310.31
2023-01-03T19:58:55.451Z,100316.13
2023-01-03T20:02:05.964Z,100311.72
2023-01-03T20:04:27.403Z,100305.56
2023-01-03T20:06:57.989Z,100314.84
2023-01-03T20:09:28.622Z,100305.22
2023-01-03T20:11:59.684Z,100312.56
2023-01-03T20:14:31.522Z,100315.34
2023-01-03T20:17:02.865Z,100309.00
2023-01-03T20:19:32.588Z,100300.50
2023-01-03T20:22:07.235Z,100307.66
2023-01-03T20:24:40.435Z,100306.41
2023-01-03T20:27:14.828Z,100307.22
2023-01-03T20:29:45.650Z,100315.06
2023-01-03T20:32:14.909Z,100305.50
2023-01-03T20:34:45.086Z,100300.84
2023-01-03T20:37:23.383Z,100302.47
2023-01-03T20:39:59.108Z,100298.88
2023-01-03T20:42:28.257Z,100301.06
2023-01-03T20:44:58.663Z,100301.00
2023-01-03T20:47:27.150Z,100303.69
2023-01-03T20:49:58.541Z,100287.88
2023-01-03T20:52:28.894Z,100281.94
2023-01-03T20:54:57.255Z,100276.66
2023-01-03T20:57:28.950Z,100273.31
2023-01-03T20:59:59.973Z,100269.72
2023-01-03T21:02:31.803Z,100270.19
2023-01-03T21:05:03.704Z,100266.69
2023-01-03T21:07:48.563Z,100259.47
2023-01-03T21:10:41.370Z,100261.88
2023-01-03T21:13:13.670Z,100257.09
2023-01-03T21:15:43.993Z,100257.41
2023-01-03T21:18:18.077Z,100272.31
2023-01-03T21:20:49.685Z,100272.50
2023-01-03T21:23:21.684Z,100267.75
2023-01-03T21:25:50.798Z,100276.72
2023-01-03T21:28:19.428Z,100272.25
2023-01-03T21:30:49.154Z,100271.50
2023-01-03T21:33:19.601Z,100272.28
2023-01-03T21:35:54.608Z,100273.47
2023-01-03T21:38:25.324Z,100272.88
2023-01-03T21:40:56.251Z,100281.66
2023-01-03T21:43:27.222Z,100278.84
2023-01-03T21:46:05.366Z,100280.94
2023-01-03T21:48:36.379Z,100279.81
2023-01-03T21:51:06.301Z,100275.38
2023-01-03T21:53:51.521Z,100261.28
2023-01-03T21:56:22.935Z,100257.81
2023-01-03T21:58:52.909Z,100242.34
2023-01-03T22:01:26.481Z,100237.03
2023-01-03T22:04:18.607Z,100229.44
2023-01-03T22:06:51.517Z,100232.97
2023-01-03T22:09:42.571Z,100232.16
2023-01-03T22:12:15.308Z,100229.84
2023-01-03T22:14:48.869Z,100228.94
2023-01-03T22:17:17.759Z,100231.34
2023-01-03T22:19:47.999Z,100230.34
2023-01-03T22:22:20.369Z,100239.41
2023-01-03T22:24:50.803Z,100241.97
2023-01-03T22:27:22.959Z,100245.88
2023-01-03T22:29:51.907Z,100240.91
2023-01-03T22:32:24.807Z,100252.47
2023-01-03T22:34:57.808Z,100252.00
2023-01-03T22:37:29.962Z,100250.94
2023-01-03T22:40:05.324Z,100254.34
2023-01-03T22:42:37.076Z,100256.91
2023-01-03T22:45:08.598Z,100259.66
2023-01-03T22:47:42.835Z,100259.88
2023-01-03T22:50:17.553Z,100260.59
2023-01-03T22:52:50.991Z,100262.72
2023-01-03T22:55:33.838Z,100255.34
2023-01-03T22:58:03.403Z,100251.47
2023-01-03T23:00:32.101Z,100249.69
2023-01-03T23:03:02.829Z,100246.13
2023-01-03T23:05:31.240Z,100240.03
2023-01-03T23:08:00.121Z,100229.78
2023-01-03T23:10:30.232Z,100231.44
2023-01-03T23:13:01.029Z,100227.41
2023-01-03T23:15:31.722Z,100227.22
2023-01-03T23:18:02.251Z,100227.38
2023-01-03T23:20:34.837Z,100220.31
2023-01-03T23:23:08.766Z,100212.66
2023-01-03T23:25:42.143Z,100216.28
2023-01-03T23:28:10.645Z,100211.06
2023-01-03T23:30:42.015Z,100207.41
2023-01-03T23:33:14.389Z,100205.78
2023-01-03T23:35:48.785Z,100207.44
2023-01-03T23:38:19.340Z,100197.84
2023-01-03T23:40:51.619Z,100198.84
2023-01-03T23:43:20.627Z,100200.38
2023-01-03T23:45:50.381Z,100196.03
2023-01-03T23:48:20.035Z,100203.47
2023-01-03T23:50:51.908Z,100200.97
2023-01-03T23:53:20.547Z,100194.69
2023-01-03T23:56:01.891Z,100200.44
2023-01-03T23:58:32.279Z,100193.31
